createdAt,value
2022-12-03T00:00:59.547Z,5.57
2022-12-03T00:03:26.103Z,5.35
2022-12-03T00:05:52.659Z,5.80
2022-12-03T00:08:19.086Z,5.13
2022-12-03T00:10:45.463Z,5.20
2022-12-03T00:13:11.891Z,5.38
2022-12-03T00:15:38.331Z,5.50
2022-12-03T00:18:04.825Z,5.43
2022-12-03T00:20:31.235Z,5.07
2022-12-03T00:22:57.685Z,5.47
2022-12-03T00:25:24.113Z,5.43
2022-12-03T00:27:50.603Z,5.22
2022-12-03T00:30:17.147Z,5.82
2022-12-03T00:32:43.546Z,5.78
2022-12-03T00:35:10.323Z,5.65
2022-12-03T00:37:36.720Z,5.90
2022-12-03T00:40:04.412Z,6.38
2022-12-03T00:42:30.902Z,5.55
2022-12-03T00:44:57.459Z,6.03
2022-12-03T00:47:23.831Z,5.88
2022-12-03T00:49:50.318Z,5.93
2022-12-03T00:52:16.727Z,6.20
2022-12-03T00:54:43.158Z,6.60
2022-12-03T00:57:09.542Z,6.15
2022-12-03T00:59:35.934Z,5.72
2022-12-03T01:02:02.402Z,6.60
2022-12-03T01:04:29.032Z,6.70
2022-12-03T01:06:55.847Z,6.18
2022-12-03T01:09:22.282Z,6.63
2022-12-03T01:11:48.672Z,7.07
2022-12-03T01:14:17.809Z,7.03
2022-12-03T01:16:44.359Z,6.22
2022-12-03T01:19:11.121Z,6.97
2022-12-03T01:21:37.848Z,6.70
2022-12-03T01:24:04.894Z,6.97
2022-12-03T01:26:31.457Z,6.32
2022-12-03T01:28:57.941Z,6.75
2022-12-03T01:31:42.913Z,6.68
2022-12-03T01:34:09.386Z,6.65
2022-12-03T01:36:35.823Z,7.18
2022-12-03T01:39:03.628Z,7.15
2022-12-03T01:41:31.560Z,6.85
2022-12-03T01:44:06.164Z,7.20
2022-12-03T01:46:39.148Z,6.80
2022-12-03T01:49:05.697Z,6.57
2022-12-03T01:51:32.147Z,6.30
2022-12-03T01:53:59.171Z,7.00
2022-12-03T01:56:25.532Z,6.65
2022-12-03T01:58:51.962Z,6.38
2022-12-03T02:01:19.143Z,6.93
2022-12-03T02:03:46.166Z,6.68
2022-12-03T02:06:20.266Z,6.32
2022-12-03T02:08:47.887Z,6.65
2022-12-03T02:11:14.176Z,7.07
2022-12-03T02:13:40.639Z,6.50
2022-12-03T02:16:07.443Z,6.47
2022-12-03T02:18:34.061Z,6.95
2022-12-03T02:21:19.151Z,6.38
2022-12-03T02:24:20.681Z,7.00
2022-12-03T02:26:47.196Z,6.68
2022-12-03T02:29:13.735Z,6.60
2022-12-03T02:31:40.297Z,6.63
2022-12-03T02:34:07.451Z,6.97
2022-12-03T02:36:35.330Z,6.95
2022-12-03T02:39:05.231Z,6.55
2022-12-03T02:41:50.316Z,6.68
2022-12-03T02:44:16.741Z,7.07
2022-12-03T02:46:43.259Z,6.28
2022-12-03T02:49:09.979Z,6.65
2022-12-03T02:51:36.378Z,6.55
2022-12-03T02:54:03.332Z,7.63
2022-12-03T02:56:30.641Z,6.80
2022-12-03T02:58:59.757Z,6.70
2022-12-03T03:01:26.566Z,6.67
2022-12-03T03:03:53.413Z,5.95
2022-12-03T03:06:20.332Z,6.13
2022-12-03T03:08:46.726Z,6.75
2022-12-03T03:11:13.203Z,6.32
2022-12-03T03:13:39.832Z,6.67
2022-12-03T03:16:07.545Z,6.75
2022-12-03T03:18:34.990Z,6.50
2022-12-03T03:21:01.829Z,6.20
2022-12-03T03:23:28.213Z,6.37
2022-12-03T03:26:00.745Z,6.57
2022-12-03T03:28:28.940Z,6.30
2022-12-03T03:30:55.994Z,6.15
2022-12-03T03:33:22.495Z,6.72
2022-12-03T03:35:49.226Z,6.15
2022-12-03T03:38:17.877Z,6.65
2022-12-03T03:40:44.453Z,6.47
2022-12-03T03:43:11.564Z,7.47
2022-12-03T03:45:38.264Z,6.90
2022-12-03T03:48:05.002Z,6.85
2022-12-03T03:50:31.942Z,7.60
2022-12-03T03:53:00.012Z,6.88
2022-12-03T03:55:27.001Z,7.18
2022-12-03T03:57:53.511Z,7.40
2022-12-03T04:00:20.100Z,7.70
2022-12-03T04:02:46.502Z,8.13
2022-12-03T04:05:21.504Z,7.57
2022-12-03T04:07:48.057Z,7.72
2022-12-03T04:10:34.223Z,7.88
2022-12-03T04:13:01.168Z,8.18
2022-12-03T04:15:27.805Z,7.90
2022-12-03T04:18:12.713Z,8.40
2022-12-03T04:20:39.142Z,8.23
2022-12-03T04:23:05.950Z,8.20
2022-12-03T04:25:51.063Z,7.78
2022-12-03T04:28:36.033Z,7.60
2022-12-03T04:31:25.110Z,7.88
2022-12-03T04:34:10.717Z,7.70
2022-12-03T04:36:37.138Z,8.20
2022-12-03T04:39:04.032Z,8.13
2022-12-03T04:41:30.523Z,8.55
2022-12-03T04:44:17.709Z,8.70
2022-12-03T04:46:44.153Z,8.82
2022-12-03T04:49:10.577Z,8.57
2022-12-03T04:51:37.003Z,8.50
2022-12-03T04:54:03.523Z,9.07
2022-12-03T04:56:29.939Z,9.13
2022-12-03T04:58:56.442Z,8.98
2022-12-03T05:01:23.015Z,9.48
2022-12-03T05:03:49.500Z,9.60
2022-12-03T05:06:16.006Z,8.55
2022-12-03T05:08:42.416Z,8.82
2022-12-03T05:11:08.814Z,9.23
2022-12-03T05:13:35.496Z,8.85
2022-12-03T05:16:01.902Z,8.80
2022-12-03T05:18:28.275Z,10.93
2022-12-03T05:20:54.675Z,9.80
2022-12-03T05:23:21.543Z,10.65
2022-12-03T05:25:48.069Z,9.73
2022-12-03T05:28:14.511Z,9.65
2022-12-03T05:30:41.196Z,9.65
2022-12-03T05:33:07.657Z,9.55
2022-12-03T05:35:34.071Z,9.32
2022-12-03T05:38:00.473Z,9.60
2022-12-03T05:40:26.882Z,9.93
2022-12-03T05:42:57.099Z,9.20
2022-12-03T05:45:23.485Z,9.48
2022-12-03T05:47:49.902Z,9.35
2022-12-03T05:50:34.437Z,8.98
2022-12-03T05:53:00.930Z,9.45
2022-12-03T05:55:27.825Z,9.80
2022-12-03T05:57:54.493Z,9.45
2022-12-03T06:00:42.813Z,10.13
2022-12-03T06:03:09.768Z,9.65
2022-12-03T06:05:36.261Z,9.65
2022-12-03T06:08:02.742Z,9.55
2022-12-03T06:10:29.632Z,8.73
2022-12-03T06:12:56.353Z,9.45
2022-12-03T06:15:23.086Z,7.43
2022-12-03T06:17:49.652Z,9.00
2022-12-03T06:20:18.821Z,8.20
2022-12-03T06:22:45.265Z,8.23
2022-12-03T06:25:12.070Z,8.70
2022-12-03T06:27:38.604Z,9.18
2022-12-03T06:30:06.170Z,8.70
2022-12-03T06:32:32.727Z,8.32
2022-12-03T06:34:59.273Z,8.55
2022-12-03T06:37:25.677Z,8.68
2022-12-03T06:39:52.094Z,9.20
2022-12-03T06:42:18.628Z,8.70
2022-12-03T06:44:45.056Z,8.90
2022-12-03T06:47:11.496Z,7.78
2022-12-03T06:49:37.870Z,8.95
2022-12-03T06:52:04.387Z,8.38
2022-12-03T06:54:30.864Z,8.80
2022-12-03T06:56:57.240Z,8.77
2022-12-03T06:59:23.615Z,10.10
2022-12-03T07:01:50.113Z,9.10
2022-12-03T07:04:16.540Z,9.00
2022-12-03T07:06:42.942Z,9.15
2022-12-03T07:09:09.551Z,9.27
2022-12-03T07:11:42.023Z,9.30
2022-12-03T07:14:10.954Z,9.65
2022-12-03T07:16:37.713Z,9.65
2022-12-03T07:19:05.563Z,9.70
2022-12-03T07:21:32.279Z,10.20
2022-12-03T07:23:58.690Z,10.23
2022-12-03T07:26:25.144Z,10.43
2022-12-03T07:28:51.596Z,10.05
2022-12-03T07:31:18.086Z,10.80
2022-12-03T07:33:44.532Z,10.68
2022-12-03T07:36:11.097Z,10.13
2022-12-03T07:38:37.550Z,10.23
2022-12-03T07:41:04.018Z,9.60
2022-12-03T07:43:30.467Z,10.85
2022-12-03T07:45:56.851Z,10.57
2022-12-03T07:48:23.285Z,10.52
2022-12-03T07:50:49.780Z,11.05
2022-12-03T07:53:16.200Z,9.90
2022-12-03T07:55:42.605Z,11.20
2022-12-03T07:58:09.370Z,11.05
2022-12-03T08:00:35.923Z,11.48
2022-12-03T08:03:02.389Z,10.73
2022-12-03T08:05:29.726Z,10.77
2022-12-03T08:07:56.432Z,11.07
2022-12-03T08:10:24.986Z,10.90
2022-12-03T08:12:51.655Z,10.90
2022-12-03T08:15:19.197Z,11.07
2022-12-03T08:17:48.163Z,11.23
2022-12-03T08:20:18.831Z,10.60
2022-12-03T08:22:47.176Z,10.15
2022-12-03T08:25:21.411Z,10.48
2022-12-03T08:27:47.821Z,10.68
2022-12-03T08:30:15.770Z,10.35
2022-12-03T08:32:42.750Z,10.27
2022-12-03T08:35:14.026Z,10.82
2022-12-03T08:37:40.744Z,10.48
2022-12-03T08:40:21.112Z,10.70
2022-12-03T08:42:47.609Z,10.93
2022-12-03T08:45:29.417Z,11.02
2022-12-03T08:48:05.958Z,10.85
2022-12-03T08:50:36.384Z,11.15
2022-12-03T08:53:31.742Z,10.93
2022-12-03T08:56:22.695Z,11.43
2022-12-03T08:58:55.150Z,11.52
2022-12-03T09:01:34.985Z,9.98
2022-12-03T09:04:32.125Z,11.10
2022-12-03T09:06:58.652Z,11.50
2022-12-03T09:09:25.177Z,10.77
2022-12-03T09:11:52.227Z,11.25
2022-12-03T09:14:21.142Z,10.88
2022-12-03T09:16:47.919Z,12.32
2022-12-03T09:19:14.855Z,12.23
2022-12-03T09:21:41.274Z,11.80
2022-12-03T09:24:07.855Z,10.50
2022-12-03T09:26:34.303Z,13.05
2022-12-03T09:29:00.766Z,11.80
2022-12-03T09:31:27.276Z,11.77
2022-12-03T09:33:53.798Z,12.68
2022-12-03T09:36:20.231Z,11.60
2022-12-03T09:38:48.281Z,11.98
2022-12-03T09:41:17.232Z,12.98
2022-12-03T09:44:03.398Z,12.73
2022-12-03T09:46:30.360Z,13.27
2022-12-03T09:48:57.183Z,12.88
2022-12-03T09:51:29.586Z,12.82
2022-12-03T09:53:56.002Z,14.07
2022-12-03T09:56:23.366Z,12.75
2022-12-03T09:58:50.355Z,12.13
2022-12-03T10:01:17.917Z,12.95
2022-12-03T10:03:47.463Z,13.82
2022-12-03T10:06:24.085Z,13.73
2022-12-03T10:08:53.591Z,12.55
2022-12-03T10:11:21.866Z,13.45
2022-12-03T10:13:48.581Z,12.93
2022-12-03T10:16:17.230Z,12.27
2022-12-03T10:18:47.630Z,11.68
2022-12-03T10:21:26.776Z,13.05
2022-12-03T10:24:15.086Z,12.60
2022-12-03T10:26:41.474Z,11.93
2022-12-03T10:29:19.442Z,11.60
2022-12-03T10:31:46.223Z,12.20
2022-12-03T10:34:12.786Z,12.32
2022-12-03T10:36:42.195Z,13.20
2022-12-03T10:39:11.620Z,12.23
2022-12-03T10:41:38.868Z,12.02
2022-12-03T10:44:21.398Z,12.30
2022-12-03T10:47:11.625Z,13.10
2022-12-03T10:49:39.135Z,12.02
2022-12-03T10:52:06.384Z,12.35
2022-12-03T10:54:33.894Z,12.13
2022-12-03T10:57:02.938Z,12.10
2022-12-03T10:59:33.622Z,12.77
2022-12-03T11:02:00.091Z,11.25
2022-12-03T11:04:33.754Z,12.00
2022-12-03T11:07:02.663Z,12.60
2022-12-03T11:09:31.818Z,13.75
2022-12-03T11:12:06.076Z,12.75
2022-12-03T11:14:51.648Z,12.52
2022-12-03T11:17:50.344Z,11.65
2022-12-03T11:20:22.813Z,11.20
2022-12-03T11:22:56.886Z,13.07
2022-12-03T11:25:26.385Z,12.90
2022-12-03T11:28:11.648Z,12.25
2022-12-03T11:31:02.139Z,14.52
2022-12-03T11:33:41.276Z,13.45
2022-12-03T11:36:12.202Z,13.55
2022-12-03T11:38:40.657Z,12.98
2022-12-03T11:41:09.968Z,13.60
2022-12-03T11:43:51.697Z,11.95
2022-12-03T11:46:23.783Z,12.77
2022-12-03T11:48:52.032Z,12.07
2022-12-03T11:51:20.521Z,12.35
2022-12-03T11:53:47.217Z,11.40
2022-12-03T11:56:26.087Z,11.70
2022-12-03T11:59:01.292Z,12.00
2022-12-03T12:01:38.801Z,12.73
2022-12-03T12:04:10.470Z,11.13
2022-12-03T12:06:53.188Z,10.77
2022-12-03T12:09:52.233Z,12.73
2022-12-03T12:12:31.169Z,19.23
2022-12-03T12:14:58.825Z,14.90
2022-12-03T12:17:30.466Z,13.77
2022-12-03T12:20:23.684Z,10.35
2022-12-03T12:22:50.738Z,12.88
2022-12-03T12:25:29.262Z,12.52
2022-12-03T12:27:55.785Z,11.57
2022-12-03T12:30:23.149Z,13.07
2022-12-03T12:33:19.598Z,11.57
2022-12-03T12:35:46.040Z,12.75
2022-12-03T12:38:24.174Z,11.80
2022-12-03T12:40:50.864Z,12.68
2022-12-03T12:43:24.827Z,11.77
2022-12-03T12:45:56.161Z,11.90
2022-12-03T12:48:23.863Z,11.68
2022-12-03T12:51:18.654Z,11.45
2022-12-03T12:53:45.193Z,13.98
2022-12-03T12:56:26.494Z,14.98
2022-12-03T12:58:53.666Z,40.72
2022-12-03T13:01:22.319Z,11.85
2022-12-03T13:03:50.737Z,12.48
2022-12-03T13:06:17.746Z,11.68
2022-12-03T13:08:49.447Z,11.25
2022-12-03T13:11:25.212Z,12.45
2022-12-03T13:13:51.968Z,15.07
2022-12-03T13:16:19.561Z,15.27
2022-12-03T13:18:48.295Z,13.88
2022-12-03T13:21:23.743Z,14.27
2022-12-03T13:23:55.281Z,11.18
2022-12-03T13:26:34.529Z,13.23
2022-12-03T13:29:15.995Z,13.55
2022-12-03T13:32:08.803Z,11.50
2022-12-03T13:34:35.441Z,19.77
2022-12-03T13:37:02.187Z,18.40
2022-12-03T13:39:32.194Z,33.83
2022-12-03T13:42:26.429Z,18.67
2022-12-03T13:44:53.336Z,20.92
2022-12-03T13:47:21.712Z,67.50
2022-12-03T13:49:57.118Z,28.35
2022-12-03T13:52:25.675Z,34.75
2022-12-03T13:54:54.149Z,15.25
2022-12-03T13:57:20.584Z,18.13
2022-12-03T13:59:47.008Z,11.68
2022-12-03T14:02:13.485Z,11.25
2022-12-03T14:04:40.262Z,12.27
2022-12-03T14:07:06.724Z,11.68
2022-12-03T14:09:33.114Z,11.25
2022-12-03T14:12:18.200Z,13.38
2022-12-03T14:14:44.789Z,38.67
2022-12-03T14:17:11.626Z,23.60
2022-12-03T14:19:38.267Z,12.73
2022-12-03T14:22:07.810Z,12.05
2022-12-03T14:24:34.205Z,12.63
2022-12-03T14:27:00.587Z,14.15
2022-12-03T14:29:27.173Z,15.63
2022-12-03T14:31:53.628Z,12.00
2022-12-03T14:34:20.633Z,11.80
2022-12-03T14:36:47.020Z,11.20
2022-12-03T14:39:13.449Z,11.07
2022-12-03T14:41:58.436Z,11.13
2022-12-03T14:44:25.247Z,11.35
2022-12-03T14:46:56.617Z,17.80
2022-12-03T14:49:23.601Z,13.65
2022-12-03T14:51:50.016Z,14.13
2022-12-03T14:54:16.442Z,12.63
2022-12-03T14:56:42.818Z,12.93
2022-12-03T14:59:09.244Z,11.98
2022-12-03T15:01:35.737Z,11.35
2022-12-03T15:04:02.301Z,11.73
2022-12-03T15:06:28.758Z,12.23
2022-12-03T15:08:55.175Z,14.15
2022-12-03T15:11:21.551Z,13.00
2022-12-03T15:13:47.986Z,13.57
2022-12-03T15:16:14.409Z,14.57
2022-12-03T15:18:40.811Z,13.23
2022-12-03T15:21:07.295Z,16.33
2022-12-03T15:23:33.764Z,21.90
2022-12-03T15:26:00.155Z,12.90
2022-12-03T15:28:27.387Z,26.02
2022-12-03T15:30:53.925Z,21.05
2022-12-03T15:33:20.356Z,15.25
2022-12-03T15:35:46.838Z,13.32
2022-12-03T15:38:13.522Z,11.88
2022-12-03T15:40:40.063Z,12.50
2022-12-03T15:43:07.271Z,11.70
2022-12-03T15:45:34.205Z,12.13
2022-12-03T15:48:00.821Z,12.82
2022-12-03T15:50:27.557Z,11.98
2022-12-03T15:52:54.104Z,12.20
2022-12-03T15:55:20.565Z,12.90
2022-12-03T15:57:46.977Z,12.18
2022-12-03T16:00:14.094Z,12.32
2022-12-03T16:02:41.162Z,12.32
2022-12-03T16:05:10.168Z,13.00
2022-12-03T16:07:36.984Z,14.40
2022-12-03T16:10:04.889Z,14.13
2022-12-03T16:12:31.268Z,13.30
2022-12-03T16:14:57.659Z,13.35
2022-12-03T16:17:24.085Z,13.40
2022-12-03T16:19:50.558Z,12.52
2022-12-03T16:22:17.079Z,13.65
2022-12-03T16:24:43.512Z,13.80
2022-12-03T16:27:10.385Z,14.43
2022-12-03T16:29:36.781Z,13.30
2022-12-03T16:32:03.337Z,13.35
2022-12-03T16:34:29.739Z,15.82
2022-12-03T16:36:56.138Z,14.35
2022-12-03T16:39:22.566Z,13.15
2022-12-03T16:41:49.019Z,13.13
2022-12-03T16:44:32.385Z,12.68
2022-12-03T16:47:01.891Z,12.80
2022-12-03T16:49:28.420Z,13.93
2022-12-03T16:51:54.846Z,14.40
2022-12-03T16:54:21.236Z,13.05
2022-12-03T16:56:47.624Z,14.82
2022-12-03T16:59:14.021Z,13.10
2022-12-03T17:01:40.536Z,13.57
2022-12-03T17:04:06.958Z,13.93
2022-12-03T17:06:33.377Z,13.80
2022-12-03T17:08:59.779Z,13.38
2022-12-03T17:11:26.227Z,14.70
2022-12-03T17:13:52.687Z,15.13
2022-12-03T17:16:19.219Z,14.05
2022-12-03T17:18:45.719Z,13.35
2022-12-03T17:21:12.179Z,13.85
2022-12-03T17:23:38.621Z,12.95
2022-12-03T17:26:05.157Z,12.65
2022-12-03T17:28:31.586Z,13.70
2022-12-03T17:30:58.044Z,13.15
2022-12-03T17:33:24.504Z,14.25
2022-12-03T17:35:50.910Z,14.07
2022-12-03T17:38:17.414Z,14.30
2022-12-03T17:40:43.823Z,14.65
2022-12-03T17:43:10.238Z,14.40
2022-12-03T17:45:36.776Z,14.23
2022-12-03T17:48:03.302Z,14.15
2022-12-03T17:50:29.694Z,14.77
2022-12-03T17:52:56.065Z,15.45
2022-12-03T17:55:33.573Z,15.68
2022-12-03T17:58:04.125Z,16.55
2022-12-03T18:00:30.638Z,15.57
2022-12-03T18:02:57.007Z,17.20
2022-12-03T18:05:23.420Z,17.15
2022-12-03T18:07:50.600Z,15.50
2022-12-03T18:10:17.380Z,15.57
2022-12-03T18:12:43.811Z,16.67
2022-12-03T18:15:10.594Z,16.25
2022-12-03T18:17:37.027Z,16.73
2022-12-03T18:20:04.199Z,16.95
2022-12-03T18:22:31.323Z,16.70
2022-12-03T18:24:57.826Z,16.77
2022-12-03T18:27:24.683Z,16.50
2022-12-03T18:29:51.223Z,17.90
2022-12-03T18:32:28.989Z,16.52
2022-12-03T18:34:56.701Z,15.40
2022-12-03T18:37:26.193Z,16.20
2022-12-03T18:39:53.164Z,15.77
2022-12-03T18:42:20.965Z,17.52
2022-12-03T18:44:50.023Z,17.88
2022-12-03T18:47:19.077Z,17.13
2022-12-03T18:49:45.671Z,16.38
2022-12-03T18:52:17.318Z,16.38
2022-12-03T18:54:43.872Z,16.50
2022-12-03T18:57:10.436Z,16.73
2022-12-03T18:59:37.000Z,16.73
2022-12-03T19:02:03.605Z,15.80
2022-12-03T19:04:30.295Z,16.45
2022-12-03T19:06:56.717Z,17.55
2022-12-03T19:09:23.154Z,16.20
2022-12-03T19:11:49.640Z,16.75
2022-12-03T19:14:16.060Z,16.60
2022-12-03T19:16:42.604Z,16.50
2022-12-03T19:19:09.612Z,16.52
2022-12-03T19:21:36.186Z,16.38
2022-12-03T19:26:54.365Z,16.00
2022-12-03T19:29:22.498Z,15.50
2022-12-03T19:31:50.536Z,15.23
2022-12-03T19:34:17.420Z,15.75
2022-12-03T19:36:43.914Z,15.38
2022-12-03T19:39:10.418Z,15.60
2022-12-03T19:41:36.848Z,15.48
2022-12-03T19:44:09.218Z,14.60
2022-12-03T19:46:37.234Z,15.90
2022-12-03T19:49:04.788Z,14.95
2022-12-03T19:51:35.560Z,15.75
2022-12-03T19:54:06.456Z,15.40
2022-12-03T19:56:33.354Z,15.15
2022-12-03T19:58:59.810Z,16.55
2022-12-03T20:01:29.056Z,15.60
2022-12-03T20:03:57.033Z,15.18
2022-12-03T20:06:26.154Z,16.08
2022-12-03T20:08:57.225Z,14.95
2022-12-03T20:11:26.132Z,15.75
2022-12-03T20:13:54.784Z,15.52
2022-12-03T20:16:21.673Z,15.43
2022-12-03T20:18:49.012Z,15.45
2022-12-03T20:21:17.056Z,14.80
2022-12-03T20:23:43.515Z,14.70
2022-12-03T20:26:11.755Z,15.05
2022-12-03T20:28:39.803Z,16.13
2022-12-03T20:31:27.799Z,15.35
2022-12-03T20:33:56.639Z,15.90
2022-12-03T20:36:23.481Z,15.07
2022-12-03T20:38:54.836Z,15.30
2022-12-03T20:41:21.335Z,16.25
2022-12-03T20:43:48.091Z,15.95
2022-12-03T20:46:37.343Z,16.08
2022-12-03T20:49:04.476Z,15.35
2022-12-03T20:51:31.484Z,14.68
2022-12-03T20:53:59.319Z,15.50
2022-12-03T20:56:34.400Z,15.18
2022-12-03T20:59:04.684Z,16.02
2022-12-03T21:01:31.263Z,15.43
2022-12-03T21:03:58.070Z,15.73
2022-12-03T21:06:26.467Z,15.57
2022-12-03T21:08:55.330Z,15.85
2022-12-03T21:11:26.585Z,15.07
2022-12-03T21:13:54.250Z,14.93
2022-12-03T21:16:52.146Z,15.75
2022-12-03T21:19:12.276Z,16.10
2022-12-03T21:21:38.708Z,15.50
2022-12-03T21:24:05.373Z,15.77
2022-12-03T21:26:32.503Z,14.70
2022-12-03T21:28:58.942Z,16.35
2022-12-03T21:31:26.516Z,15.63
2022-12-03T21:33:54.207Z,14.70
2022-12-03T21:36:20.691Z,14.73
2022-12-03T21:38:48.125Z,15.30
2022-12-03T21:41:15.453Z,16.67
2022-12-03T21:43:42.928Z,15.68
2022-12-03T21:47:12.408Z,15.95
2022-12-03T21:48:59.773Z,15.90
2022-12-03T21:51:26.188Z,21.50
2022-12-03T21:53:53.377Z,16.48
2022-12-03T21:56:19.966Z,16.45
2022-12-03T21:58:46.706Z,14.77
2022-12-03T22:01:20.499Z,14.57
2022-12-03T22:03:49.123Z,15.30
2022-12-03T22:06:15.780Z,14.00
2022-12-03T22:08:42.557Z,15.63
2022-12-03T22:11:11.652Z,15.10
2022-12-03T22:13:38.817Z,15.40
2022-12-03T22:16:10.406Z,16.08
2022-12-03T22:18:36.991Z,15.55
2022-12-03T22:21:08.832Z,15.98
2022-12-03T22:23:35.400Z,15.98
2022-12-03T22:26:13.372Z,15.45
2022-12-03T22:28:42.913Z,15.40
2022-12-03T22:31:09.732Z,14.98
2022-12-03T22:33:36.731Z,14.55
2022-12-03T22:36:12.103Z,15.00
2022-12-03T22:38:41.178Z,15.27
2022-12-03T22:41:08.699Z,15.40
2022-12-03T22:43:38.649Z,16.35
2022-12-03T22:46:06.746Z,14.38
2022-12-03T22:48:34.387Z,16.85
2022-12-03T22:51:00.843Z,15.30
2022-12-03T22:53:27.260Z,15.82
2022-12-03T22:55:55.424Z,15.05
2022-12-03T22:58:21.830Z,15.02
2022-12-03T23:00:48.344Z,16.65
2022-12-03T23:03:14.894Z,16.05
2022-12-03T23:05:41.364Z,15.18
2022-12-03T23:08:09.824Z,16.15
2022-12-03T23:10:38.194Z,14.82
2022-12-03T23:13:05.961Z,15.57
2022-12-03T23:15:32.547Z,15.40
2022-12-03T23:17:59.264Z,15.85
2022-12-03T23:20:29.176Z,18.90
2022-12-03T23:22:55.626Z,15.90
2022-12-03T23:25:22.392Z,16.00
2022-12-03T23:27:49.326Z,16.08
2022-12-03T23:30:18.792Z,15.98
2022-12-03T23:32:48.141Z,16.23
2022-12-03T23:35:14.558Z,15.77
2022-12-03T23:37:42.832Z,15.80
2022-12-03T23:40:09.774Z,15.52
2022-12-03T23:42:36.200Z,14.52
2022-12-03T23:45:02.651Z,15.43
2022-12-03T23:47:29.167Z,15.95
2022-12-03T23:49:55.871Z,15.50
2022-12-03T23:52:22.530Z,16.45
2022-12-03T23:54:50.858Z,15.85
2022-12-03T23:57:18.232Z,14.95
2022-12-03T23:59:44.675Z,14.98
